ENSL

Sleipner A Platform Heliport

Norway
METAR ENSL 230950Z 20019KT 9999 BKN025 06/M01 Q1025 W05/S4
Observed Flight Rules
Feb-23 @ 09:50 UTC (40 minutes ago) Marginal Visual Flight Rules
Wind Visibility Clouds
200° at 19 knots 10,000+ meters
  • Broken at 2,500' AGL
Temperatures Readings
Current 6°C / 43°F
Dewpoint -1°C / 30°F
Humidity 61%
Altimeter 30.27" Hg
Pressure 1025 hPa
Elevation 50
METAR ENSL 230950Z 20019KT 9999 BKN025 06/M01 Q1025 W05/S4
Observed Flight Rules
Feb-23 @ 09:50 UTC
(40 minutes ago)
MVFR
Wind Visibility
200° at 19 knots 10,000+ meters
Clouds
  • Broken at 2,500' AGL
Temperature Dewpoint
6°C / 43°F -1°C / 30°F
Humidity Altimeter Pressure
61% 30.27" Hg 1025 hPa